Base Marambio Centro Met. Antartico, Antarctica
Current Conditions -  °F | °C
As of 12:00 PM on Thursday 18 Dec 2014 (Local Time) from SAWH Reporting Station
Drizzle Drizzle  
Wind Chill: 32°   Ceiling: 500
Heat Index: 43°   Visibility: 5mi
Dew Point: 37°   Wind: 31mph
Humidity: 81%   Direction: 230°SW
Pressure: 28.79"   Gusts: 38mph
Location:  64.23°S, 56.72°W
Report Text: SAWH 181200Z 23027G33KT 8000 +DZ OVC00506/03 Q0975
Loading
Personal Weather Stations






























Interactive Weather Map New forecast layout! Learn more

10-Day Weather Forecast

Advertisements
Track Severe Weather on mobile